createdAt,value
2018-06-20T00:01:46.475Z,21.50
2018-06-20T00:04:14.989Z,21.50
2018-06-20T00:06:43.575Z,21.50
2018-06-20T00:09:12.143Z,21.40
2018-06-20T00:11:40.639Z,21.40
2018-06-20T00:14:09.208Z,21.30
2018-06-20T00:16:37.928Z,21.40
2018-06-20T00:19:07.692Z,21.40
2018-06-20T00:21:36.410Z,21.40
2018-06-20T00:24:05.036Z,21.30
2018-06-20T00:26:33.564Z,21.30
2018-06-20T00:29:02.098Z,21.30
2018-06-20T00:31:30.627Z,21.30
2018-06-20T00:33:59.127Z,21.30
2018-06-20T00:36:27.741Z,21.20
2018-06-20T00:38:56.317Z,21.20
2018-06-20T00:41:25.028Z,21.20
2018-06-20T00:43:53.598Z,21.20
2018-06-20T00:46:22.169Z,21.20
2018-06-20T00:48:50.680Z,21.10
2018-06-20T00:51:19.253Z,21.00
2018-06-20T00:53:48.041Z,21.00
2018-06-20T00:56:22.818Z,21.00
2018-06-20T00:58:51.614Z,21.00
2018-06-20T01:01:20.864Z,20.90
2018-06-20T01:03:49.564Z,20.90
2018-06-20T01:06:18.111Z,20.90
2018-06-20T01:08:50.885Z,20.90
2018-06-20T01:11:19.499Z,20.80
2018-06-20T01:13:48.431Z,20.90
2018-06-20T01:16:17.081Z,20.90
2018-06-20T01:18:45.663Z,20.80
2018-06-20T01:21:15.069Z,20.80
2018-06-20T01:23:43.557Z,20.80
2018-06-20T01:26:12.301Z,20.80
2018-06-20T01:28:40.868Z,20.70
2018-06-20T01:31:09.434Z,20.70
2018-06-20T01:33:38.042Z,20.70
2018-06-20T01:36:06.672Z,20.80
2018-06-20T01:38:35.408Z,20.70
2018-06-20T01:41:03.909Z,20.80
2018-06-20T01:43:32.471Z,20.80
2018-06-20T01:46:01.007Z,20.70
2018-06-20T01:48:29.544Z,20.60
2018-06-20T01:50:58.679Z,20.60
2018-06-20T01:56:01.934Z,20.70
2018-06-20T01:58:33.231Z,20.70
2018-06-20T02:01:02.707Z,20.70
2018-06-20T02:03:32.426Z,20.60
2018-06-20T02:06:05.691Z,20.60
2018-06-20T02:08:36.114Z,20.60
2018-06-20T02:11:11.086Z,20.60
2018-06-20T02:13:40.520Z,20.60
2018-06-20T02:16:09.755Z,20.60
2018-06-20T02:18:40.287Z,20.50
2018-06-20T02:21:12.550Z,20.40
2018-06-20T02:23:44.249Z,20.30
2018-06-20T02:26:14.851Z,20.20
2018-06-20T02:28:43.450Z,20.20
2018-06-20T02:31:13.116Z,20.30
2018-06-20T02:33:51.281Z,20.30
2018-06-20T02:36:29.375Z,20.30
2018-06-20T02:38:57.914Z,20.30
2018-06-20T02:41:28.386Z,20.20
2018-06-20T02:44:00.420Z,20.10
2018-06-20T02:46:31.038Z,20.10
2018-06-20T02:49:00.540Z,20.00
2018-06-20T02:54:01.324Z,20.10
2018-06-20T02:56:31.272Z,20.10
2018-06-20T02:59:00.306Z,20.10
2018-06-20T03:01:29.654Z,20.10
2018-06-20T03:04:00.271Z,20.20
2018-06-20T03:06:31.220Z,20.30
2018-06-20T03:09:02.469Z,20.20
2018-06-20T03:11:33.322Z,20.20
2018-06-20T03:14:06.208Z,20.20
2018-06-20T03:16:38.592Z,20.20
2018-06-20T03:19:08.321Z,20.20
2018-06-20T03:21:38.744Z,20.10
2018-06-20T03:24:13.005Z,20.20
2018-06-20T03:26:45.495Z,20.20
2018-06-20T03:29:14.572Z,20.20
2018-06-20T03:31:47.552Z,20.20
2018-06-20T03:34:16.853Z,20.20
2018-06-20T03:36:47.245Z,20.20
2018-06-20T03:39:19.054Z,20.10
2018-06-20T03:41:49.054Z,20.10
2018-06-20T03:44:17.755Z,20.10
2018-06-20T03:46:47.448Z,20.00
2018-06-20T03:49:19.051Z,20.00
2018-06-20T03:51:49.190Z,20.00
2018-06-20T03:54:20.503Z,20.00
2018-06-20T03:56:50.931Z,20.00
2018-06-20T03:59:21.296Z,20.00
2018-06-20T04:01:49.898Z,20.10
2018-06-20T04:04:25.120Z,20.10
2018-06-20T04:06:55.155Z,20.10
2018-06-20T04:09:26.796Z,20.10
2018-06-20T04:11:55.328Z,20.10
2018-06-20T04:14:26.859Z,20.10
2018-06-20T04:16:57.511Z,20.10
2018-06-20T04:19:29.816Z,20.10
2018-06-20T04:21:58.335Z,20.20
2018-06-20T04:24:35.343Z,20.20
2018-06-20T04:27:08.125Z,20.20
2018-06-20T04:29:37.942Z,20.10
2018-06-20T04:32:10.846Z,20.10
2018-06-20T04:34:45.091Z,20.10
2018-06-20T04:37:15.476Z,20.10
2018-06-20T04:39:47.331Z,20.10
2018-06-20T04:42:19.427Z,20.20
2018-06-20T04:44:50.340Z,20.20
2018-06-20T04:47:20.409Z,20.30
2018-06-20T04:49:49.751Z,20.30
2018-06-20T04:52:22.475Z,20.30
2018-06-20T04:54:52.968Z,20.30
2018-06-20T04:57:23.245Z,20.30
2018-06-20T04:59:53.124Z,20.30
2018-06-20T05:02:24.072Z,20.40
2018-06-20T05:04:54.556Z,20.40
2018-06-20T05:07:23.089Z,20.50
2018-06-20T05:09:52.375Z,20.50
2018-06-20T05:12:24.593Z,20.50
2018-06-20T05:14:55.950Z,20.60
2018-06-20T05:17:25.211Z,20.60
2018-06-20T05:19:56.177Z,20.70
2018-06-20T05:22:27.185Z,20.70
2018-06-20T05:24:55.814Z,20.80
2018-06-20T05:27:25.643Z,20.80
2018-06-20T05:29:55.669Z,20.90
2018-06-20T05:32:24.439Z,20.90
2018-06-20T05:34:56.261Z,21.00
2018-06-20T05:37:30.110Z,21.20
2018-06-20T05:40:00.511Z,21.10
2018-06-20T05:42:34.183Z,21.20
2018-06-20T05:45:05.272Z,21.20
2018-06-20T05:47:38.920Z,21.30
2018-06-20T05:50:09.871Z,21.40
2018-06-20T05:52:40.857Z,21.50
2018-06-20T05:55:09.835Z,21.60
2018-06-20T05:57:42.079Z,21.60
2018-06-20T06:00:14.439Z,21.70
2018-06-20T06:02:46.335Z,21.70
2018-06-20T06:05:15.585Z,21.80
2018-06-20T06:07:46.919Z,21.90
2018-06-20T06:10:20.212Z,22.00
2018-06-20T06:12:50.520Z,22.00
2018-06-20T06:15:22.554Z,22.20
2018-06-20T06:17:51.799Z,22.30
2018-06-20T06:20:21.693Z,22.40
2018-06-20T06:22:53.466Z,22.50
2018-06-20T06:25:23.397Z,22.60
2018-06-20T06:27:52.857Z,22.70
2018-06-20T06:30:24.239Z,22.80
2018-06-20T06:32:55.275Z,22.80
2018-06-20T06:35:30.572Z,22.90
2018-06-20T06:38:03.459Z,23.00
2018-06-20T06:40:36.347Z,23.10
2018-06-20T06:43:06.784Z,23.20
2018-06-20T06:48:06.645Z,23.60
2018-06-20T06:50:36.685Z,23.80
2018-06-20T06:53:07.553Z,24.10
2018-06-20T06:55:37.968Z,24.30
2018-06-20T06:58:08.256Z,24.60
2018-06-20T07:00:40.206Z,24.80
2018-06-20T07:03:12.365Z,25.00
2018-06-20T07:05:45.111Z,25.20
2018-06-20T07:08:14.554Z,25.40
2018-06-20T07:10:45.568Z,25.60
2018-06-20T07:13:15.155Z,25.70
2018-06-20T07:15:45.091Z,25.90
2018-06-20T07:18:15.315Z,26.00
2018-06-20T07:20:47.828Z,26.20
2018-06-20T07:23:17.602Z,26.30
2018-06-20T07:25:49.286Z,26.40
2018-06-20T07:28:21.349Z,26.50
2018-06-20T07:30:51.398Z,26.50
2018-06-20T07:33:23.076Z,26.60
2018-06-20T07:35:54.620Z,26.70
2018-06-20T07:40:58.350Z,26.80
2018-06-20T07:43:29.992Z,26.90
2018-06-20T07:46:02.712Z,26.90
2018-06-20T07:48:32.313Z,27.00
2018-06-20T07:51:04.651Z,27.00
2018-06-20T07:53:36.306Z,27.00
2018-06-20T07:56:05.885Z,27.00
2018-06-20T07:58:39.759Z,27.00
2018-06-20T08:01:15.526Z,27.10
2018-06-20T08:03:51.077Z,27.10
2018-06-20T08:06:26.622Z,27.20
2018-06-20T08:11:01.980Z,27.20
2018-06-20T08:13:37.339Z,27.20
2018-06-20T08:16:13.103Z,27.00
2018-06-20T08:20:50.987Z,27.10
2018-06-20T08:23:22.764Z,27.20
2018-06-20T08:25:52.343Z,27.00
2018-06-20T08:28:23.567Z,27.00
2018-06-20T08:30:54.772Z,27.20
2018-06-20T08:33:25.206Z,27.30
2018-06-20T08:35:54.188Z,27.30
2018-06-20T08:38:25.018Z,27.30
2018-06-20T08:40:55.671Z,27.40
2018-06-20T08:43:26.263Z,27.30
2018-06-20T08:45:56.667Z,27.30
2018-06-20T08:48:25.990Z,27.30
2018-06-20T08:50:54.587Z,27.20
2018-06-20T08:53:26.278Z,27.20
2018-06-20T08:55:56.876Z,27.20
2018-06-20T08:58:28.139Z,27.20
2018-06-20T09:01:04.384Z,27.20
2018-06-20T09:03:34.639Z,27.30
2018-06-20T09:06:10.188Z,27.20
2018-06-20T09:08:44.460Z,27.20
2018-06-20T09:11:19.439Z,27.20
2018-06-20T09:13:55.586Z,27.20
2018-06-20T09:16:30.929Z,27.20
2018-06-20T09:19:09.038Z,27.10
2018-06-20T09:21:38.455Z,27.20
2018-06-20T09:24:08.960Z,27.10
2018-06-20T09:26:42.104Z,27.10
2018-06-20T09:29:14.794Z,27.10
2018-06-20T09:31:47.296Z,27.00
2018-06-20T09:34:17.360Z,26.90
2018-06-20T09:36:46.559Z,26.90
2018-06-20T09:39:17.353Z,26.90
2018-06-20T09:41:47.095Z,26.90
2018-06-20T09:44:17.498Z,26.80
2018-06-20T09:46:49.517Z,26.80
2018-06-20T09:49:18.639Z,26.80
2018-06-20T09:51:48.076Z,26.70
2018-06-20T09:54:16.715Z,26.70
2018-06-20T09:56:47.116Z,26.70
2018-06-20T09:59:24.529Z,26.70
2018-06-20T10:02:00.262Z,26.70
2018-06-20T10:04:35.012Z,26.70
2018-06-20T10:09:51.059Z,26.70
2018-06-20T10:12:26.705Z,27.60
2018-06-20T10:14:59.240Z,26.70
2018-06-20T10:17:30.783Z,26.60
2018-06-20T10:20:00.303Z,26.60
2018-06-20T10:22:32.695Z,26.50
2018-06-20T10:25:02.185Z,26.50
2018-06-20T10:27:30.873Z,26.50
2018-06-20T10:30:00.319Z,26.50
2018-06-20T10:32:30.557Z,26.50
2018-06-20T10:34:59.150Z,26.50
2018-06-20T10:37:32.496Z,26.60
2018-06-20T10:40:02.701Z,26.60
2018-06-20T10:42:33.462Z,26.60
2018-06-20T10:45:08.097Z,26.60
2018-06-20T10:47:42.559Z,26.60
2018-06-20T10:50:13.984Z,26.50
2018-06-20T10:52:44.788Z,26.50
2018-06-20T10:55:16.812Z,26.50
2018-06-20T11:00:25.865Z,26.50
2018-06-20T11:03:02.428Z,26.60
2018-06-20T11:05:37.591Z,26.60
2018-06-20T11:08:12.853Z,26.50
2018-06-20T11:10:49.697Z,26.40
2018-06-20T11:13:19.507Z,26.50
2018-06-20T11:15:48.753Z,26.50
2018-06-20T11:18:19.391Z,26.60
2018-06-20T11:20:54.242Z,26.70
2018-06-20T11:23:24.234Z,26.70
2018-06-20T11:25:53.744Z,26.70
2018-06-20T11:28:23.452Z,26.70
2018-06-20T11:30:53.827Z,26.70
2018-06-20T11:33:22.562Z,26.80
2018-06-20T11:35:52.718Z,26.80
2018-06-20T11:41:00.775Z,26.80
2018-06-20T11:43:32.116Z,26.70
2018-06-20T11:46:07.527Z,26.70
2018-06-20T11:48:37.663Z,26.70
2018-06-20T11:51:10.660Z,26.70
2018-06-20T11:53:44.907Z,26.70
2018-06-20T11:56:14.369Z,26.70
2018-06-20T11:58:52.535Z,26.70
2018-06-20T12:01:26.455Z,26.70
2018-06-20T12:04:00.581Z,26.70
2018-06-20T12:06:39.808Z,26.80
2018-06-20T12:09:16.005Z,26.90
2018-06-20T12:11:54.065Z,26.80
2018-06-20T12:14:29.533Z,26.80
2018-06-20T12:16:59.680Z,26.70
2018-06-20T12:19:40.804Z,26.60
2018-06-20T12:22:15.820Z,26.60
2018-06-20T12:24:51.497Z,26.70
2018-06-20T12:27:27.079Z,26.70
2018-06-20T12:30:01.043Z,26.70
2018-06-20T12:32:36.714Z,26.80
2018-06-20T12:35:12.139Z,26.80
2018-06-20T12:37:48.565Z,26.80
2018-06-20T12:42:27.091Z,26.80
2018-06-20T12:45:13.753Z,26.70
2018-06-20T12:47:50.294Z,26.50
2018-06-20T12:50:27.867Z,26.50
2018-06-20T12:52:58.851Z,26.60
2018-06-20T12:55:29.588Z,26.60
2018-06-20T12:58:00.848Z,26.70
2018-06-20T13:00:31.105Z,26.70
2018-06-20T13:03:00.868Z,26.70
2018-06-20T13:05:32.970Z,26.70
2018-06-20T13:08:06.084Z,26.80
2018-06-20T13:10:35.689Z,26.90
2018-06-20T13:13:06.829Z,27.00
2018-06-20T13:15:37.580Z,27.10
2018-06-20T13:18:06.713Z,27.10
2018-06-20T13:20:36.311Z,27.10
2018-06-20T13:23:06.312Z,27.10
2018-06-20T13:25:35.628Z,27.10
2018-06-20T13:28:05.914Z,27.10
2018-06-20T13:33:10.670Z,27.30
2018-06-20T13:35:45.520Z,27.40
2018-06-20T13:38:21.270Z,27.50
2018-06-20T13:40:55.792Z,27.50
2018-06-20T13:43:36.835Z,27.60
2018-06-20T13:46:11.099Z,27.60
2018-06-20T13:48:41.202Z,27.60
2018-06-20T13:51:10.739Z,27.70
2018-06-20T13:53:43.109Z,27.60
2018-06-20T13:56:15.370Z,27.50
2018-06-20T13:58:47.405Z,27.50
2018-06-20T14:01:17.913Z,27.40
2018-06-20T14:03:48.378Z,27.50
2018-06-20T14:06:18.665Z,27.70
2018-06-20T14:08:49.156Z,27.70
2018-06-20T14:11:25.338Z,27.60
2018-06-20T14:13:55.784Z,27.60
2018-06-20T14:16:25.019Z,27.50
2018-06-20T14:18:55.688Z,27.50
2018-06-20T14:21:30.219Z,27.60
2018-06-20T14:23:58.743Z,27.50
2018-06-20T14:26:29.386Z,27.50
2018-06-20T14:28:59.759Z,27.50
2018-06-20T14:36:44.311Z,27.40
2018-06-20T14:39:18.594Z,27.40
2018-06-20T14:41:56.155Z,27.50
2018-06-20T14:44:28.199Z,27.60
2018-06-20T14:47:00.258Z,27.60
2018-06-20T14:49:30.457Z,27.50
2018-06-20T14:52:00.695Z,27.50
2018-06-20T14:54:33.086Z,27.30
2018-06-20T14:57:04.489Z,27.20
2018-06-20T15:02:06.231Z,27.10
2018-06-20T15:04:36.412Z,27.00
2018-06-20T15:07:08.329Z,27.00
2018-06-20T15:09:39.944Z,26.90
2018-06-20T15:12:15.991Z,26.90
2018-06-20T15:14:46.851Z,26.80
2018-06-20T15:17:22.734Z,26.80
2018-06-20T15:19:52.099Z,26.80
2018-06-20T15:22:23.682Z,26.80
2018-06-20T15:24:54.703Z,26.80
2018-06-20T15:27:29.410Z,26.80
2018-06-20T15:30:08.349Z,26.80
2018-06-20T15:32:43.650Z,26.70
2018-06-20T15:37:22.253Z,26.70
2018-06-20T15:39:53.139Z,26.70
2018-06-20T15:42:24.213Z,24.80
2018-06-20T15:44:56.132Z,26.50
2018-06-20T15:47:27.522Z,26.50
2018-06-20T15:50:01.417Z,26.60
2018-06-20T15:52:30.907Z,26.60
2018-06-20T15:55:01.503Z,26.60
2018-06-20T15:57:32.100Z,26.60
2018-06-20T16:00:08.748Z,26.60
2018-06-20T16:02:37.341Z,26.50
2018-06-20T16:05:08.984Z,26.50
2018-06-20T16:07:38.336Z,26.50
2018-06-20T16:10:12.929Z,26.50
2018-06-20T16:12:46.164Z,26.50
2018-06-20T16:15:17.064Z,26.50
2018-06-20T16:17:45.686Z,26.60
2018-06-20T16:20:24.106Z,26.50
2018-06-20T16:22:58.462Z,26.50
2018-06-20T16:25:39.075Z,26.50
2018-06-20T16:30:45.928Z,26.50
2018-06-20T16:33:16.062Z,26.50
2018-06-20T16:35:48.144Z,26.50
2018-06-20T16:38:21.299Z,26.50
2018-06-20T16:40:53.469Z,26.50
2018-06-20T16:43:24.771Z,26.50
2018-06-20T16:48:27.106Z,26.60
2018-06-20T16:50:58.450Z,26.60
2018-06-20T16:53:27.100Z,26.60
2018-06-20T16:55:58.884Z,26.70
2018-06-20T16:58:33.247Z,26.70
2018-06-20T17:03:51.523Z,26.70
2018-06-20T17:06:20.943Z,26.70
2018-06-20T17:08:51.996Z,26.70
2018-06-20T17:11:22.772Z,26.70
2018-06-20T17:14:00.420Z,26.70
2018-06-20T17:16:37.292Z,26.70
2018-06-20T17:19:14.008Z,26.70
2018-06-20T17:21:50.642Z,26.70
2018-06-20T17:24:24.552Z,26.60
2018-06-20T17:26:55.232Z,26.60
2018-06-20T17:29:24.296Z,26.70
2018-06-20T17:32:00.439Z,26.70
2018-06-20T17:37:04.195Z,26.70
2018-06-20T17:39:35.767Z,26.70
2018-06-20T17:42:06.104Z,26.70
2018-06-20T17:44:36.504Z,26.60
2018-06-20T17:47:06.725Z,26.60
2018-06-20T17:49:37.288Z,26.60
2018-06-20T17:52:12.945Z,26.50
2018-06-20T17:54:46.323Z,26.60
2018-06-20T17:57:16.522Z,26.60
2018-06-20T17:59:45.574Z,26.60
2018-06-20T18:02:17.904Z,26.60
2018-06-20T18:04:54.594Z,26.60
2018-06-20T18:07:28.884Z,26.50
2018-06-20T18:10:03.921Z,26.50
2018-06-20T18:13:05.465Z,26.40
2018-06-20T18:15:39.401Z,26.40
2018-06-20T18:18:14.320Z,26.30
2018-06-20T18:20:45.379Z,26.30
2018-06-20T18:23:14.530Z,26.30
2018-06-20T18:25:45.352Z,26.30
2018-06-20T18:28:18.103Z,26.40
2018-06-20T18:30:48.516Z,26.40
2018-06-20T18:33:17.689Z,26.30
2018-06-20T18:35:48.067Z,26.30
2018-06-20T18:38:19.747Z,26.30
2018-06-20T18:40:51.756Z,26.30
2018-06-20T18:43:24.333Z,26.30
2018-06-20T18:45:55.451Z,26.20
2018-06-20T18:48:28.339Z,26.20
2018-06-20T18:50:58.789Z,26.20
2018-06-20T18:53:28.593Z,26.10
2018-06-20T18:55:59.438Z,26.10
2018-06-20T18:58:35.928Z,26.10
2018-06-20T19:01:12.796Z,26.10
2018-06-20T19:03:49.112Z,26.00
2018-06-20T19:06:23.887Z,26.00
2018-06-20T19:08:59.579Z,26.00
2018-06-20T19:11:30.228Z,26.00
2018-06-20T19:14:00.108Z,26.00
2018-06-20T19:16:29.464Z,25.90
2018-06-20T19:19:00.829Z,25.90
2018-06-20T19:21:32.375Z,25.90
2018-06-20T19:24:03.186Z,25.90
2018-06-20T19:26:38.352Z,25.90
2018-06-20T19:29:09.327Z,25.90
2018-06-20T19:31:43.032Z,25.80
2018-06-20T19:36:49.973Z,25.80
2018-06-20T19:39:26.954Z,25.70
2018-06-20T19:41:57.358Z,25.70
2018-06-20T19:44:33.995Z,25.70
2018-06-20T19:47:07.527Z,25.70
2018-06-20T19:49:38.085Z,25.70
2018-06-20T19:52:08.361Z,25.70
2018-06-20T19:54:37.892Z,25.70
2018-06-20T19:57:07.855Z,25.70
2018-06-20T19:59:38.489Z,25.70
2018-06-20T20:02:08.083Z,25.60
2018-06-20T20:04:38.420Z,25.70
2018-06-20T20:07:09.896Z,25.60
2018-06-20T20:09:40.631Z,25.60
2018-06-20T20:12:09.451Z,25.60
2018-06-20T20:14:39.628Z,25.60
2018-06-20T20:17:12.564Z,25.50
2018-06-20T20:19:42.824Z,25.50
2018-06-20T20:22:13.128Z,25.50
2018-06-20T20:24:43.043Z,25.50
2018-06-20T20:27:12.228Z,25.50
2018-06-20T20:29:43.548Z,25.50
2018-06-20T20:32:13.992Z,25.50
2018-06-20T20:34:44.011Z,25.50
2018-06-20T20:37:13.821Z,25.40
2018-06-20T20:42:16.778Z,25.40
2018-06-20T20:44:48.319Z,25.40
2018-06-20T20:47:23.563Z,25.40
2018-06-20T20:49:54.504Z,25.40
2018-06-20T20:52:24.606Z,25.40
2018-06-20T20:54:54.344Z,25.40
2018-06-20T20:57:24.866Z,25.40
2018-06-20T20:59:55.369Z,25.40
2018-06-20T21:02:25.728Z,25.30
2018-06-20T21:04:56.238Z,25.30
2018-06-20T21:07:26.015Z,25.30
2018-06-20T21:09:56.448Z,25.30
2018-06-20T21:12:32.509Z,25.30
2018-06-20T21:15:01.876Z,25.30
2018-06-20T21:17:33.372Z,25.20
2018-06-20T21:20:04.984Z,25.20
2018-06-20T21:22:35.637Z,25.20
2018-06-20T21:25:10.208Z,25.20
2018-06-20T21:27:39.634Z,25.20
2018-06-20T21:30:09.516Z,25.10
2018-06-20T21:32:40.095Z,25.10
2018-06-20T21:35:11.833Z,25.10
2018-06-20T21:37:45.198Z,25.10
2018-06-20T21:40:14.722Z,25.10
2018-06-20T21:42:43.920Z,25.10
2018-06-20T21:45:13.559Z,25.10
2018-06-20T21:47:43.181Z,25.10
2018-06-20T21:50:12.742Z,25.10
2018-06-20T21:52:46.007Z,25.10
2018-06-20T21:55:18.600Z,25.00
2018-06-20T21:57:48.655Z,25.00
2018-06-20T22:00:19.491Z,25.00
2018-06-20T22:02:48.080Z,24.90
2018-06-20T22:05:19.488Z,24.90
2018-06-20T22:07:50.425Z,24.90
2018-06-20T22:10:22.243Z,24.80
2018-06-20T22:12:54.177Z,24.80
2018-06-20T22:15:24.771Z,24.80
2018-06-20T22:17:53.447Z,24.80
2018-06-20T22:20:24.387Z,24.80
2018-06-20T22:22:57.199Z,24.70
2018-06-20T22:25:28.420Z,24.70
2018-06-20T22:28:02.984Z,24.60
2018-06-20T22:30:31.499Z,24.60
2018-06-20T22:33:02.083Z,24.60
2018-06-20T22:35:34.928Z,24.60
2018-06-20T22:38:04.313Z,24.50
2018-06-20T22:40:35.382Z,24.50
2018-06-20T22:43:04.612Z,24.50
2018-06-20T22:45:36.820Z,24.50
2018-06-20T22:48:08.655Z,24.50
2018-06-20T22:50:37.217Z,24.50
2018-06-20T22:53:05.749Z,24.50
2018-06-20T22:55:37.394Z,24.50
2018-06-20T22:58:09.303Z,24.50
2018-06-20T23:00:40.655Z,24.40
2018-06-20T23:03:10.354Z,24.40
2018-06-20T23:05:39.835Z,24.30
2018-06-20T23:08:13.753Z,24.30
2018-06-20T23:10:44.802Z,24.30
2018-06-20T23:13:15.812Z,24.30
2018-06-20T23:18:17.017Z,24.20
2018-06-20T23:20:47.684Z,24.20
2018-06-20T23:23:17.354Z,24.20
2018-06-20T23:25:46.798Z,24.10
2018-06-20T23:28:17.267Z,24.10
2018-06-20T23:30:46.792Z,24.10
2018-06-20T23:33:18.477Z,24.10
2018-06-20T23:35:49.222Z,24.10
2018-06-20T23:38:18.432Z,24.10
2018-06-20T23:40:47.770Z,24.10
2018-06-20T23:43:17.078Z,24.00
2018-06-20T23:45:48.511Z,23.90
2018-06-20T23:48:18.224Z,23.90
2018-06-20T23:50:50.859Z,23.90
2018-06-20T23:53:20.817Z,23.90
2018-06-20T23:55:54.011Z,23.90
2018-06-20T23:58:26.563Z,23.90
